This is the latest recevied weather packets stored in our database for station/object WV8BRW. If no packets are shown the sender has not sent any weather packets the latest 1 day(s).
| Time | Temp. | Humidity | Pressure | Rain* | Wind** | Luminosity | Snow |
|---|---|---|---|---|---|---|---|
| 1778017838 | 22.78° C | 57% | 1007.3 hPa | 0 mm | 0 m/s | 116 W/m² | - |
| 1778017536 | 22.78° C | 54% | 1007 hPa | 0 mm | 0.45 m/s, 330° | 95 W/m² | - |
| 1778017233 | 23.33° C | 56% | 1007.4 hPa | 0 mm | 0.45 m/s, 348° | 98 W/m² | - |
| 1778016930 | 23.89° C | 52% | 1007.5 hPa | 0 mm | 0 m/s | 112 W/m² | - |
| 1778016626 | 23.89° C | 52% | 1007.4 hPa | 0 mm | 0 m/s | 183 W/m² | - |
| 1778016323 | 24.44° C | 49% | 1007.4 hPa | 0 mm | 0 m/s | 184 W/m² | - |
| 1778016020 | 24.44° C | 50% | 1007.7 hPa | 0 mm | 0 m/s | 297 W/m² | - |
| 1778015718 | 24.44° C | 47% | 1007.5 hPa | 0 mm | 1.79 m/s, 64° | 314 W/m² | - |
| 1778015414 | 23.89° C | 55% | 1007.4 hPa | 0 mm | 0 m/s | 258 W/m² | - |
| 1778015111 | 23.89° C | 52% | 1007.5 hPa | 0 mm | 0 m/s | 239 W/m² | - |
| 1778014808 | 23.33° C | 53% | 1007.7 hPa | 0 mm | 0.45 m/s, 287° | 259 W/m² | - |
| 1778014506 | 23.33° C | 53% | 1007.8 hPa | 0 mm | 0 m/s | 205 W/m² | - |
| 1778014203 | 23.89° C | 56% | 1007.8 hPa | 0 mm | 0 m/s | 167 W/m² | - |
| 1778013901 | 23.89° C | 54% | 1007.6 hPa | 0 mm | 0 m/s | 203 W/m² | - |
| 1778013597 | 23.89° C | 50% | 1007.7 hPa | 0 mm | 0 m/s | 206 W/m² | - |
| 1778013294 | 24.44° C | 52% | 1007.6 hPa | 0 mm | 0.45 m/s, 349° | 231 W/m² | - |
| 1778012990 | 24.44° C | 52% | 1007.8 hPa | 0 mm | 0.45 m/s, 63° | 269 W/m² | - |
| 1778012687 | 25° C | 47% | 1007.9 hPa | 0 mm | 1.34 m/s, 142° | 459 W/m² | - |
| 1778012383 | 24.44° C | 54% | 1008 hPa | 0 mm | 0.89 m/s, 343° | 414 W/m² | - |
| 1778012080 | 23.89° C | 58% | 1008 hPa | 0 mm | 0.89 m/s, 338° | 307 W/m² | - |
| 1778011778 | 23.89° C | 55% | 1008.2 hPa | 0 mm | 0.89 m/s, 322° | 320 W/m² | - |
| 1778011475 | 23.33° C | 58% | 1008.1 hPa | 0 mm | 0 m/s | 242 W/m² | - |
| 1778011171 | 23.33° C | 59% | 1008.3 hPa | 0 mm | 0 m/s | 197 W/m² | - |
| 1778010868 | 23.89° C | 59% | 1008.1 hPa | 0 mm | 0.45 m/s, 328° | 201 W/m² | - |
| 1778010566 | 23.33° C | 55% | 1008.3 hPa | 0 mm | 0 m/s | 247 W/m² | - |
* Rain latest hour (hover to see other rain measurements)
** Current wind speed in m/s (hover to see current wind gust speed)